sensor_id;sensor_type;location;lat;lon;timestamp;temperature;humidity
9385;DHT22;4732;49.340;10.886;2024-03-23T04:04:26;9.40;99.90
9385;DHT22;4732;49.340;10.886;2024-03-23T04:06:59;9.40;99.90
9385;DHT22;4732;49.340;10.886;2024-03-23T04:09:24;9.30;99.90
9385;DHT22;4732;49.340;10.886;2024-03-23T04:11:50;9.40;99.90
9385;DHT22;4732;49.340;10.886;2024-03-23T04:14:15;9.40;99.90
9385;DHT22;4732;49.340;10.886;2024-03-23T04:16:41;9.40;99.90
9385;DHT22;4732;49.340;10.886;2024-03-23T04:19:07;9.40;99.90
9385;DHT22;4732;49.340;10.886;2024-03-23T04:21:32;9.40;99.90
9385;DHT22;4732;49.340;10.886;2024-03-23T04:23:58;9.40;99.90
9385;DHT22;4732;49.340;10.886;2024-03-23T04:26:23;9.40;99.90
9385;DHT22;4732;49.340;10.886;2024-03-23T04:28:49;9.50;99.90
9385;DHT22;4732;49.340;10.886;2024-03-23T04:31:14;9.50;99.90
9385;DHT22;4732;49.340;10.886;2024-03-23T04:33:40;9.50;99.90
9385;DHT22;4732;49.340;10.886;2024-03-23T04:36:05;9.50;99.90
9385;DHT22;4732;49.340;10.886;2024-03-23T04:38:32;9.60;99.90
9385;DHT22;4732;49.340;10.886;2024-03-23T04:40:59;9.60;99.90
9385;DHT22;4732;49.340;10.886;2024-03-23T04:43:28;9.60;99.90
9385;DHT22;4732;49.340;10.886;2024-03-23T04:45:54;9.60;99.90
9385;DHT22;4732;49.340;10.886;2024-03-23T04:48:20;9.60;99.90
9385;DHT22;4732;49.340;10.886;2024-03-23T04:50:48;9.60;99.90
9385;DHT22;4732;49.340;10.886;2024-03-23T04:53:14;9.60;99.90
9385;DHT22;4732;49.340;10.886;2024-03-23T04:55:41;9.70;99.90
9385;DHT22;4732;49.340;10.886;2024-03-23T04:58:06;9.70;99.90
9385;DHT22;4732;49.340;10.886;2024-03-23T05:00:32;9.80;99.90
9385;DHT22;4732;49.340;10.886;2024-03-23T05:02:57;9.80;99.90
9385;DHT22;4732;49.340;10.886;2024-03-23T05:05:23;9.90;99.90
9385;DHT22;4732;49.340;10.886;2024-03-23T05:07:48;9.90;99.90
9385;DHT22;4732;49.340;10.886;2024-03-23T05:10:14;9.80;99.90
9385;DHT22;4732;49.340;10.886;2024-03-23T05:12:40;9.80;99.90
9385;DHT22;4732;49.340;10.886;2024-03-23T05:15:06;9.80;99.90
9385;DHT22;4732;49.340;10.886;2024-03-23T05:17:32;9.80;99.90
9385;DHT22;4732;49.340;10.886;2024-03-23T05:19:58;9.80;99.90
9385;DHT22;4732;49.340;10.886;2024-03-23T05:22:23;9.80;99.90
9385;DHT22;4732;49.340;10.886;2024-03-23T05:24:49;9.80;99.90
9385;DHT22;4732;49.340;10.886;2024-03-23T05:27:15;9.80;99.90
9385;DHT22;4732;49.340;10.886;2024-03-23T05:29:40;9.80;99.90
9385;DHT22;4732;49.340;10.886;2024-03-23T05:32:06;9.80;99.90
9385;DHT22;4732;49.340;10.886;2024-03-23T05:34:31;9.80;99.90
9385;DHT22;4732;49.340;10.886;2024-03-23T05:36:57;9.90;99.90
9385;DHT22;4732;49.340;10.886;2024-03-23T05:39:24;10.00;99.90
9385;DHT22;4732;49.340;10.886;2024-03-23T05:41:49;10.00;99.90
9385;DHT22;4732;49.340;10.886;2024-03-23T05:44:15;10.00;99.90
9385;DHT22;4732;49.340;10.886;2024-03-23T05:46:41;10.00;99.90
9385;DHT22;4732;49.340;10.886;2024-03-23T05:49:06;10.00;99.90
9385;DHT22;4732;49.340;10.886;2024-03-23T05:51:32;10.10;99.90
9385;DHT22;4732;49.340;10.886;2024-03-23T05:53:58;10.20;99.90
9385;DHT22;4732;49.340;10.886;2024-03-23T05:56:23;10.20;99.90
9385;DHT22;4732;49.340;10.886;2024-03-23T05:58:49;10.20;99.90
9385;DHT22;4732;49.340;10.886;2024-03-23T06:01:14;10.30;99.90
9385;DHT22;4732;49.340;10.886;2024-03-23T06:03:40;10.30;99.90
9385;DHT22;4732;49.340;10.886;2024-03-23T06:06:05;10.30;99.90
9385;DHT22;4732;49.340;10.886;2024-03-23T06:08:37;10.30;99.90
9385;DHT22;4732;49.340;10.886;2024-03-23T06:11:04;10.30;99.90
9385;DHT22;4732;49.340;10.886;2024-03-23T06:13:29;10.20;99.90
9385;DHT22;4732;49.340;10.886;2024-03-23T06:15:56;10.10;99.90
9385;DHT22;4732;49.340;10.886;2024-03-23T06:18:22;10.00;99.90
9385;DHT22;4732;49.340;10.886;2024-03-23T06:20:49;9.90;99.90
9385;DHT22;4732;49.340;10.886;2024-03-23T06:23:14;9.80;99.90
9385;DHT22;4732;49.340;10.886;2024-03-23T06:25:41;9.80;99.90
9385;DHT22;4732;49.340;10.886;2024-03-23T06:28:06;9.70;99.90
9385;DHT22;4732;49.340;10.886;2024-03-23T06:30:32;9.70;99.90
9385;DHT22;4732;49.340;10.886;2024-03-23T06:32:57;9.70;99.90
9385;DHT22;4732;49.340;10.886;2024-03-23T06:35:23;9.70;99.90
9385;DHT22;4732;49.340;10.886;2024-03-23T06:37:48;9.70;99.90
9385;DHT22;4732;49.340;10.886;2024-03-23T06:40:17;9.70;99.90
9385;DHT22;4732;49.340;10.886;2024-03-23T06:42:42;9.70;99.90
9385;DHT22;4732;49.340;10.886;2024-03-23T06:45:09;9.80;99.90
9385;DHT22;4732;49.340;10.886;2024-03-23T06:47:34;9.80;99.90
9385;DHT22;4732;49.340;10.886;2024-03-23T06:50:01;9.80;99.90
9385;DHT22;4732;49.340;10.886;2024-03-23T06:57:22;9.70;99.90
9385;DHT22;4732;49.340;10.886;2024-03-23T14:30:57;12.70;99.60
9385;DHT22;4732;49.340;10.886;2024-03-23T14:35:56;12.10;99.40
9385;DHT22;4732;49.340;10.886;2024-03-23T14:38:25;11.80;99.90
9385;DHT22;4732;49.340;10.886;2024-03-23T14:40:50;11.60;99.90
9385;DHT22;4732;49.340;10.886;2024-03-23T14:43:18;11.10;99.90
9385;DHT22;4732;49.340;10.886;2024-03-23T14:46:18;11.10;99.90
9385;DHT22;4732;49.340;10.886;2024-03-23T14:48:47;11.10;99.90
9385;DHT22;4732;49.340;10.886;2024-03-23T14:51:13;10.70;99.90
9385;DHT22;4732;49.340;10.886;2024-03-23T16:34:56;10.10;99.90
9385;DHT22;4732;49.340;10.886;2024-03-23T16:37:23;10.00;99.90
9385;DHT22;4732;49.340;10.886;2024-03-23T16:39:52;9.40;99.90
